sensor_id;sensor_type;location;lat;lon;timestamp;P1;durP1;ratioP1;P2;durP2;ratioP2
54307;SDS011;40208;39.778;2.710;2023-06-10T00:02:16;6.18;;;2.40;;
54307;SDS011;40208;39.778;2.710;2023-06-10T00:05:01;8.88;;;2.50;;
54307;SDS011;40208;39.778;2.710;2023-06-10T00:07:47;7.25;;;2.42;;
54307;SDS011;40208;39.778;2.710;2023-06-10T00:10:34;3.75;;;2.05;;
54307;SDS011;40208;39.778;2.710;2023-06-10T00:13:20;5.43;;;2.50;;
54307;SDS011;40208;39.778;2.710;2023-06-10T00:16:05;7.20;;;2.70;;
54307;SDS011;40208;39.778;2.710;2023-06-10T00:18:50;8.32;;;2.53;;
54307;SDS011;40208;39.778;2.710;2023-06-10T00:21:39;6.97;;;2.37;;
54307;SDS011;40208;39.778;2.710;2023-06-10T00:24:24;7.07;;;2.47;;
54307;SDS011;40208;39.778;2.710;2023-06-10T00:27:09;3.47;;;2.30;;
54307;SDS011;40208;39.778;2.710;2023-06-10T00:29:55;6.63;;;2.00;;
54307;SDS011;40208;39.778;2.710;2023-06-10T00:32:40;6.45;;;2.60;;
54307;SDS011;40208;39.778;2.710;2023-06-10T00:35:25;5.63;;;2.13;;
54307;SDS011;40208;39.778;2.710;2023-06-10T00:38:09;7.43;;;2.65;;
54307;SDS011;40208;39.778;2.710;2023-06-10T00:40:57;9.13;;;3.22;;
54307;SDS011;40208;39.778;2.710;2023-06-10T00:43:41;6.40;;;2.50;;
54307;SDS011;40208;39.778;2.710;2023-06-10T00:46:27;5.60;;;2.60;;
54307;SDS011;40208;39.778;2.710;2023-06-10T00:49:12;8.75;;;3.45;;
54307;SDS011;40208;39.778;2.710;2023-06-10T00:51:57;3.83;;;2.28;;
54307;SDS011;40208;39.778;2.710;2023-06-10T00:54:42;6.22;;;2.88;;
54307;SDS011;40208;39.778;2.710;2023-06-10T00:57:28;5.03;;;2.42;;
54307;SDS011;40208;39.778;2.710;2023-06-10T01:00:14;5.75;;;2.40;;
54307;SDS011;40208;39.778;2.710;2023-06-10T01:03:00;7.50;;;2.70;;
54307;SDS011;40208;39.778;2.710;2023-06-10T01:05:46;5.10;;;2.33;;
54307;SDS011;40208;39.778;2.710;2023-06-10T01:08:47;6.50;;;2.97;;
54307;SDS011;40208;39.778;2.710;2023-06-10T01:11:48;9.18;;;2.97;;
54307;SDS011;40208;39.778;2.710;2023-06-10T01:14:53;7.85;;;2.20;;
54307;SDS011;40208;39.778;2.710;2023-06-10T01:21:00;7.38;;;2.53;;
54307;SDS011;40208;39.778;2.710;2023-06-10T01:23:45;9.30;;;3.35;;
54307;SDS011;40208;39.778;2.710;2023-06-10T01:26:31;11.27;;;2.47;;
54307;SDS011;40208;39.778;2.710;2023-06-10T01:29:19;6.45;;;2.40;;
54307;SDS011;40208;39.778;2.710;2023-06-10T01:32:26;5.22;;;2.67;;
54307;SDS011;40208;39.778;2.710;2023-06-10T01:35:17;7.28;;;2.03;;
54307;SDS011;40208;39.778;2.710;2023-06-10T01:38:09;9.50;;;2.63;;
54307;SDS011;40208;39.778;2.710;2023-06-10T01:40:55;7.35;;;2.20;;
54307;SDS011;40208;39.778;2.710;2023-06-10T01:43:42;9.93;;;2.63;;
54307;SDS011;40208;39.778;2.710;2023-06-10T01:46:28;7.38;;;2.42;;
54307;SDS011;40208;39.778;2.710;2023-06-10T01:49:13;5.07;;;2.28;;
54307;SDS011;40208;39.778;2.710;2023-06-10T01:51:58;3.65;;;2.00;;
54307;SDS011;40208;39.778;2.710;2023-06-10T01:54:43;6.00;;;2.35;;
54307;SDS011;40208;39.778;2.710;2023-06-10T01:57:27;4.93;;;2.38;;
54307;SDS011;40208;39.778;2.710;2023-06-10T02:00:12;6.93;;;2.35;;
54307;SDS011;40208;39.778;2.710;2023-06-10T02:02:58;7.93;;;2.72;;
54307;SDS011;40208;39.778;2.710;2023-06-10T02:05:43;5.90;;;2.80;;
54307;SDS011;40208;39.778;2.710;2023-06-10T02:08:30;5.07;;;2.53;;
54307;SDS011;40208;39.778;2.710;2023-06-10T02:11:15;7.88;;;2.85;;
54307;SDS011;40208;39.778;2.710;2023-06-10T02:14:02;7.50;;;3.03;;
54307;SDS011;40208;39.778;2.710;2023-06-10T02:16:47;7.25;;;2.67;;
54307;SDS011;40208;39.778;2.710;2023-06-10T02:19:31;4.57;;;2.60;;
54307;SDS011;40208;39.778;2.710;2023-06-10T02:22:16;4.95;;;2.38;;
54307;SDS011;40208;39.778;2.710;2023-06-10T02:25:02;6.15;;;2.10;;
54307;SDS011;40208;39.778;2.710;2023-06-10T02:27:48;5.20;;;2.58;;
54307;SDS011;40208;39.778;2.710;2023-06-10T02:30:32;3.28;;;2.13;;
54307;SDS011;40208;39.778;2.710;2023-06-10T02:33:17;5.97;;;2.53;;
54307;SDS011;40208;39.778;2.710;2023-06-10T02:36:03;13.82;;;2.60;;
54307;SDS011;40208;39.778;2.710;2023-06-10T02:38:48;7.28;;;2.60;;
54307;SDS011;40208;39.778;2.710;2023-06-10T02:41:33;4.78;;;2.53;;
54307;SDS011;40208;39.778;2.710;2023-06-10T02:44:18;4.47;;;2.55;;
54307;SDS011;40208;39.778;2.710;2023-06-10T02:47:03;6.82;;;2.38;;
54307;SDS011;40208;39.778;2.710;2023-06-10T02:49:50;5.45;;;2.20;;
54307;SDS011;40208;39.778;2.710;2023-06-10T02:52:35;6.43;;;2.70;;
54307;SDS011;40208;39.778;2.710;2023-06-10T02:55:21;6.13;;;2.22;;
54307;SDS011;40208;39.778;2.710;2023-06-10T02:58:10;5.85;;;2.47;;
54307;SDS011;40208;39.778;2.710;2023-06-10T03:00:55;5.97;;;2.35;;
54307;SDS011;40208;39.778;2.710;2023-06-10T03:03:40;7.22;;;3.30;;
54307;SDS011;40208;39.778;2.710;2023-06-10T03:06:27;8.13;;;2.55;;
54307;SDS011;40208;39.778;2.710;2023-06-10T03:09:13;5.78;;;2.47;;
54307;SDS011;40208;39.778;2.710;2023-06-10T03:11:58;6.15;;;2.60;;
54307;SDS011;40208;39.778;2.710;2023-06-10T03:14:43;5.43;;;2.30;;
54307;SDS011;40208;39.778;2.710;2023-06-10T03:17:28;10.27;;;2.42;;
54307;SDS011;40208;39.778;2.710;2023-06-10T03:20:13;4.97;;;2.60;;
54307;SDS011;40208;39.778;2.710;2023-06-10T03:23:00;5.13;;;2.47;;
54307;SDS011;40208;39.778;2.710;2023-06-10T03:25:45;7.05;;;2.45;;
54307;SDS011;40208;39.778;2.710;2023-06-10T03:28:30;5.50;;;2.40;;
54307;SDS011;40208;39.778;2.710;2023-06-10T03:31:15;3.50;;;2.17;;
54307;SDS011;40208;39.778;2.710;2023-06-10T03:34:01;3.85;;;2.40;;
54307;SDS011;40208;39.778;2.710;2023-06-10T03:36:46;5.68;;;2.33;;
54307;SDS011;40208;39.778;2.710;2023-06-10T03:39:31;5.10;;;1.92;;
54307;SDS011;40208;39.778;2.710;2023-06-10T03:42:17;4.47;;;2.45;;
54307;SDS011;40208;39.778;2.710;2023-06-10T03:45:02;5.72;;;2.38;;
54307;SDS011;40208;39.778;2.710;2023-06-10T03:47:50;2.35;;;1.83;;
54307;SDS011;40208;39.778;2.710;2023-06-10T03:50:35;3.95;;;1.98;;
54307;SDS011;40208;39.778;2.710;2023-06-10T03:53:20;4.60;;;2.17;;
54307;SDS011;40208;39.778;2.710;2023-06-10T03:56:05;4.00;;;2.00;;
54307;SDS011;40208;39.778;2.710;2023-06-10T03:58:50;4.82;;;1.85;;
54307;SDS011;40208;39.778;2.710;2023-06-10T04:01:37;4.30;;;2.17;;
54307;SDS011;40208;39.778;2.710;2023-06-10T04:04:25;7.60;;;2.83;;
54307;SDS011;40208;39.778;2.710;2023-06-10T04:07:10;4.25;;;2.20;;
54307;SDS011;40208;39.778;2.710;2023-06-10T04:09:55;5.05;;;1.77;;
54307;SDS011;40208;39.778;2.710;2023-06-10T04:12:40;7.38;;;2.63;;
54307;SDS011;40208;39.778;2.710;2023-06-10T04:15:26;5.05;;;2.70;;
54307;SDS011;40208;39.778;2.710;2023-06-10T04:18:10;3.90;;;2.33;;
54307;SDS011;40208;39.778;2.710;2023-06-10T04:20:55;124.65;;;59.53;;
54307;SDS011;40208;39.778;2.710;2023-06-10T04:23:41;147.52;;;59.58;;
54307;SDS011;40208;39.778;2.710;2023-06-10T04:26:27;101.80;;;43.42;;
54307;SDS011;40208;39.778;2.710;2023-06-10T04:29:12;101.72;;;44.17;;
54307;SDS011;40208;39.778;2.710;2023-06-10T04:31:57;80.68;;;36.13;;
54307;SDS011;40208;39.778;2.710;2023-06-10T04:34:42;79.97;;;39.00;;
54307;SDS011;40208;39.778;2.710;2023-06-10T04:37:29;84.63;;;43.65;;
54307;SDS011;40208;39.778;2.710;2023-06-10T04:40:14;87.18;;;45.35;;
54307;SDS011;40208;39.778;2.710;2023-06-10T04:43:00;83.57;;;41.63;;
54307;SDS011;40208;39.778;2.710;2023-06-10T04:45:45;72.82;;;35.90;;
54307;SDS011;40208;39.778;2.710;2023-06-10T04:48:29;57.67;;;30.50;;
54307;SDS011;40208;39.778;2.710;2023-06-10T04:51:14;57.92;;;27.13;;
54307;SDS011;40208;39.778;2.710;2023-06-10T04:53:59;48.10;;;25.65;;
54307;SDS011;40208;39.778;2.710;2023-06-10T04:56:48;48.40;;;24.02;;
54307;SDS011;40208;39.778;2.710;2023-06-10T04:59:32;42.65;;;22.83;;
54307;SDS011;40208;39.778;2.710;2023-06-10T05:02:17;33.22;;;18.55;;
54307;SDS011;40208;39.778;2.710;2023-06-10T05:05:03;37.47;;;19.30;;
54307;SDS011;40208;39.778;2.710;2023-06-10T05:07:48;40.50;;;19.63;;
54307;SDS011;40208;39.778;2.710;2023-06-10T05:10:34;35.90;;;19.15;;
54307;SDS011;40208;39.778;2.710;2023-06-10T05:13:22;31.30;;;16.70;;
54307;SDS011;40208;39.778;2.710;2023-06-10T05:16:06;37.85;;;16.83;;
54307;SDS011;40208;39.778;2.710;2023-06-10T05:18:52;37.25;;;18.85;;
54307;SDS011;40208;39.778;2.710;2023-06-10T05:21:37;29.70;;;16.00;;
54307;SDS011;40208;39.778;2.710;2023-06-10T05:24:22;34.97;;;16.38;;
54307;SDS011;40208;39.778;2.710;2023-06-10T05:27:07;31.88;;;16.75;;
54307;SDS011;40208;39.778;2.710;2023-06-10T05:29:53;26.60;;;13.20;;
54307;SDS011;40208;39.778;2.710;2023-06-10T05:32:38;22.15;;;13.15;;
54307;SDS011;40208;39.778;2.710;2023-06-10T05:35:23;24.55;;;11.57;;
54307;SDS011;40208;39.778;2.710;2023-06-10T05:38:10;20.08;;;11.57;;
54307;SDS011;40208;39.778;2.710;2023-06-10T05:40:55;20.35;;;10.60;;
54307;SDS011;40208;39.778;2.710;2023-06-10T05:43:41;66.43;;;21.90;;
54307;SDS011;40208;39.778;2.710;2023-06-10T05:46:26;48.88;;;19.08;;
54307;SDS011;40208;39.778;2.710;2023-06-10T05:49:11;32.60;;;14.98;;
54307;SDS011;40208;39.778;2.710;2023-06-10T05:51:56;30.80;;;14.80;;
54307;SDS011;40208;39.778;2.710;2023-06-10T05:54:43;25.33;;;11.93;;
54307;SDS011;40208;39.778;2.710;2023-06-10T05:57:28;16.88;;;9.05;;
54307;SDS011;40208;39.778;2.710;2023-06-10T06:00:13;19.55;;;10.60;;
54307;SDS011;40208;39.778;2.710;2023-06-10T06:02:58;17.75;;;9.40;;
54307;SDS011;40208;39.778;2.710;2023-06-10T06:05:43;21.88;;;11.93;;
54307;SDS011;40208;39.778;2.710;2023-06-10T06:08:30;25.05;;;11.80;;
54307;SDS011;40208;39.778;2.710;2023-06-10T06:11:15;21.85;;;11.45;;
54307;SDS011;40208;39.778;2.710;2023-06-10T06:14:00;22.13;;;9.98;;
54307;SDS011;40208;39.778;2.710;2023-06-10T06:16:45;19.90;;;10.52;;
54307;SDS011;40208;39.778;2.710;2023-06-10T06:19:30;20.08;;;9.18;;
54307;SDS011;40208;39.778;2.710;2023-06-10T06:22:15;16.50;;;10.15;;
54307;SDS011;40208;39.778;2.710;2023-06-10T06:25:04;14.37;;;7.83;;
54307;SDS011;40208;39.778;2.710;2023-06-10T06:27:50;15.95;;;7.90;;
54307;SDS011;40208;39.778;2.710;2023-06-10T06:30:35;18.40;;;8.27;;
54307;SDS011;40208;39.778;2.710;2023-06-10T06:33:20;23.83;;;11.38;;
54307;SDS011;40208;39.778;2.710;2023-06-10T06:36:07;15.25;;;9.38;;
54307;SDS011;40208;39.778;2.710;2023-06-10T06:38:52;23.00;;;10.82;;
54307;SDS011;40208;39.778;2.710;2023-06-10T06:41:36;20.38;;;9.30;;
54307;SDS011;40208;39.778;2.710;2023-06-10T06:44:21;28.80;;;19.17;;
54307;SDS011;40208;39.778;2.710;2023-06-10T06:47:06;34.85;;;23.42;;
54307;SDS011;40208;39.778;2.710;2023-06-10T06:49:51;28.02;;;16.77;;
54307;SDS011;40208;39.778;2.710;2023-06-10T06:52:36;20.02;;;12.95;;
54307;SDS011;40208;39.778;2.710;2023-06-10T06:55:21;22.25;;;12.57;;
54307;SDS011;40208;39.778;2.710;2023-06-10T06:58:06;23.27;;;12.35;;
54307;SDS011;40208;39.778;2.710;2023-06-10T07:00:51;18.30;;;8.93;;
54307;SDS011;40208;39.778;2.710;2023-06-10T07:03:36;14.07;;;8.57;;
54307;SDS011;40208;39.778;2.710;2023-06-10T07:06:21;16.73;;;9.32;;
54307;SDS011;40208;39.778;2.710;2023-06-10T07:09:07;17.05;;;10.13;;
54307;SDS011;40208;39.778;2.710;2023-06-10T07:11:56;17.98;;;11.55;;
54307;SDS011;40208;39.778;2.710;2023-06-10T07:14:41;20.52;;;11.82;;
54307;SDS011;40208;39.778;2.710;2023-06-10T07:17:25;19.13;;;12.63;;
54307;SDS011;40208;39.778;2.710;2023-06-10T07:20:11;16.38;;;11.85;;
54307;SDS011;40208;39.778;2.710;2023-06-10T07:22:56;19.75;;;10.95;;
54307;SDS011;40208;39.778;2.710;2023-06-10T07:25:41;20.33;;;11.20;;
54307;SDS011;40208;39.778;2.710;2023-06-10T07:28:26;11.00;;;6.63;;
54307;SDS011;40208;39.778;2.710;2023-06-10T07:31:11;16.05;;;8.65;;
54307;SDS011;40208;39.778;2.710;2023-06-10T07:33:56;12.32;;;7.28;;
54307;SDS011;40208;39.778;2.710;2023-06-10T07:36:41;13.13;;;6.15;;
54307;SDS011;40208;39.778;2.710;2023-06-10T07:39:26;13.00;;;6.57;;
54307;SDS011;40208;39.778;2.710;2023-06-10T07:42:11;11.10;;;5.43;;
54307;SDS011;40208;39.778;2.710;2023-06-10T07:44:56;12.20;;;6.35;;
54307;SDS011;40208;39.778;2.710;2023-06-10T07:47:42;9.40;;;4.15;;
54307;SDS011;40208;39.778;2.710;2023-06-10T07:50:27;7.60;;;3.03;;
54307;SDS011;40208;39.778;2.710;2023-06-10T07:53:12;11.48;;;3.45;;
54307;SDS011;40208;39.778;2.710;2023-06-10T07:55:57;8.30;;;4.88;;
54307;SDS011;40208;39.778;2.710;2023-06-10T07:58:42;9.18;;;4.28;;
54307;SDS011;40208;39.778;2.710;2023-06-10T08:01:27;9.50;;;3.40;;
54307;SDS011;40208;39.778;2.710;2023-06-10T08:04:12;7.65;;;3.63;;
54307;SDS011;40208;39.778;2.710;2023-06-10T08:06:56;9.60;;;4.55;;
54307;SDS011;40208;39.778;2.710;2023-06-10T08:09:41;14.30;;;5.57;;
54307;SDS011;40208;39.778;2.710;2023-06-10T08:12:26;8.63;;;4.75;;
54307;SDS011;40208;39.778;2.710;2023-06-10T08:15:11;12.43;;;5.03;;
54307;SDS011;40208;39.778;2.710;2023-06-10T08:17:56;10.90;;;4.45;;
54307;SDS011;40208;39.778;2.710;2023-06-10T08:20:41;12.82;;;4.50;;
54307;SDS011;40208;39.778;2.710;2023-06-10T08:23:26;12.23;;;4.00;;
54307;SDS011;40208;39.778;2.710;2023-06-10T08:26:11;8.10;;;3.40;;
54307;SDS011;40208;39.778;2.710;2023-06-10T08:28:56;15.38;;;4.93;;
54307;SDS011;40208;39.778;2.710;2023-06-10T08:31:43;12.27;;;4.22;;
54307;SDS011;40208;39.778;2.710;2023-06-10T08:34:33;10.80;;;3.85;;
54307;SDS011;40208;39.778;2.710;2023-06-10T08:37:19;9.32;;;3.50;;
54307;SDS011;40208;39.778;2.710;2023-06-10T08:40:04;12.57;;;3.92;;
54307;SDS011;40208;39.778;2.710;2023-06-10T08:45:46;7.50;;;3.25;;
54307;SDS011;40208;39.778;2.710;2023-06-10T08:48:34;9.70;;;3.40;;
54307;SDS011;40208;39.778;2.710;2023-06-10T08:51:26;5.82;;;3.08;;
54307;SDS011;40208;39.778;2.710;2023-06-10T08:54:15;6.57;;;2.97;;
54307;SDS011;40208;39.778;2.710;2023-06-10T08:57:05;12.40;;;3.20;;
54307;SDS011;40208;39.778;2.710;2023-06-10T08:59:51;6.72;;;3.28;;
54307;SDS011;40208;39.778;2.710;2023-06-10T09:02:40;18.90;;;4.97;;
54307;SDS011;40208;39.778;2.710;2023-06-10T09:05:26;11.35;;;3.60;;
54307;SDS011;40208;39.778;2.710;2023-06-10T09:08:12;12.63;;;3.72;;
54307;SDS011;40208;39.778;2.710;2023-06-10T09:10:59;12.02;;;3.95;;
54307;SDS011;40208;39.778;2.710;2023-06-10T09:13:44;12.82;;;4.63;;
54307;SDS011;40208;39.778;2.710;2023-06-10T09:16:29;9.75;;;3.90;;
54307;SDS011;40208;39.778;2.710;2023-06-10T09:19:15;9.10;;;3.63;;
54307;SDS011;40208;39.778;2.710;2023-06-10T09:22:01;19.50;;;4.00;;
54307;SDS011;40208;39.778;2.710;2023-06-10T09:24:46;18.88;;;3.72;;
54307;SDS011;40208;39.778;2.710;2023-06-10T09:27:32;9.80;;;3.53;;
54307;SDS011;40208;39.778;2.710;2023-06-10T09:30:26;6.32;;;2.95;;
54307;SDS011;40208;39.778;2.710;2023-06-10T09:33:13;7.60;;;3.30;;
54307;SDS011;40208;39.778;2.710;2023-06-10T09:36:01;8.07;;;3.20;;
54307;SDS011;40208;39.778;2.710;2023-06-10T09:38:46;7.65;;;3.20;;
54307;SDS011;40208;39.778;2.710;2023-06-10T09:41:35;7.97;;;3.45;;
54307;SDS011;40208;39.778;2.710;2023-06-10T09:44:23;7.88;;;3.30;;
54307;SDS011;40208;39.778;2.710;2023-06-10T09:47:09;9.00;;;2.92;;
54307;SDS011;40208;39.778;2.710;2023-06-10T09:50:04;7.85;;;3.05;;
54307;SDS011;40208;39.778;2.710;2023-06-10T09:52:50;11.48;;;4.18;;
54307;SDS011;40208;39.778;2.710;2023-06-10T09:55:39;8.18;;;3.00;;
54307;SDS011;40208;39.778;2.710;2023-06-10T09:58:37;13.57;;;3.43;;
54307;SDS011;40208;39.778;2.710;2023-06-10T10:01:23;10.10;;;3.30;;
54307;SDS011;40208;39.778;2.710;2023-06-10T10:04:08;9.27;;;3.05;;
54307;SDS011;40208;39.778;2.710;2023-06-10T10:06:53;15.02;;;4.20;;
54307;SDS011;40208;39.778;2.710;2023-06-10T10:09:39;9.75;;;3.50;;
54307;SDS011;40208;39.778;2.710;2023-06-10T10:12:24;8.60;;;3.45;;
54307;SDS011;40208;39.778;2.710;2023-06-10T10:15:11;14.38;;;4.13;;
54307;SDS011;40208;39.778;2.710;2023-06-10T10:17:58;5.68;;;2.35;;
54307;SDS011;40208;39.778;2.710;2023-06-10T10:20:54;9.93;;;3.95;;
54307;SDS011;40208;39.778;2.710;2023-06-10T10:23:44;9.30;;;3.50;;
54307;SDS011;40208;39.778;2.710;2023-06-10T10:26:38;6.93;;;2.97;;
54307;SDS011;40208;39.778;2.710;2023-06-10T10:29:30;8.15;;;2.90;;
54307;SDS011;40208;39.778;2.710;2023-06-10T10:32:22;7.32;;;2.85;;
54307;SDS011;40208;39.778;2.710;2023-06-10T10:35:28;7.40;;;2.90;;
54307;SDS011;40208;39.778;2.710;2023-06-10T10:38:15;8.13;;;3.17;;
54307;SDS011;40208;39.778;2.710;2023-06-10T10:41:00;8.07;;;2.63;;
54307;SDS011;40208;39.778;2.710;2023-06-10T10:43:46;5.95;;;2.35;;
54307;SDS011;40208;39.778;2.710;2023-06-10T10:46:31;10.40;;;3.38;;
54307;SDS011;40208;39.778;2.710;2023-06-10T10:49:30;7.82;;;2.92;;
54307;SDS011;40208;39.778;2.710;2023-06-10T10:52:16;9.60;;;2.92;;
54307;SDS011;40208;39.778;2.710;2023-06-10T10:55:01;11.60;;;3.75;;
54307;SDS011;40208;39.778;2.710;2023-06-10T11:00:43;9.13;;;2.80;;
54307;SDS011;40208;39.778;2.710;2023-06-10T11:03:29;9.05;;;3.47;;
54307;SDS011;40208;39.778;2.710;2023-06-10T11:06:15;9.38;;;3.08;;
54307;SDS011;40208;39.778;2.710;2023-06-10T11:09:24;8.38;;;3.47;;
54307;SDS011;40208;39.778;2.710;2023-06-10T11:12:17;9.43;;;3.38;;
54307;SDS011;40208;39.778;2.710;2023-06-10T11:15:08;8.88;;;3.05;;
54307;SDS011;40208;39.778;2.710;2023-06-10T11:18:09;12.73;;;3.78;;
54307;SDS011;40208;39.778;2.710;2023-06-10T11:23:45;13.35;;;3.70;;
54307;SDS011;40208;39.778;2.710;2023-06-10T11:26:34;11.63;;;4.32;;
54307;SDS011;40208;39.778;2.710;2023-06-10T11:29:19;10.48;;;4.43;;
54307;SDS011;40208;39.778;2.710;2023-06-10T11:32:05;12.35;;;4.28;;
54307;SDS011;40208;39.778;2.710;2023-06-10T11:34:52;10.82;;;3.28;;
54307;SDS011;40208;39.778;2.710;2023-06-10T11:37:37;6.93;;;3.20;;
54307;SDS011;40208;39.778;2.710;2023-06-10T11:40:23;11.20;;;3.53;;
54307;SDS011;40208;39.778;2.710;2023-06-10T11:43:08;10.95;;;4.13;;
54307;SDS011;40208;39.778;2.710;2023-06-10T11:45:54;8.75;;;4.10;;
54307;SDS011;40208;39.778;2.710;2023-06-10T11:48:53;15.50;;;4.70;;
54307;SDS011;40208;39.778;2.710;2023-06-10T11:51:41;11.27;;;4.00;;
54307;SDS011;40208;39.778;2.710;2023-06-10T11:54:33;16.73;;;4.90;;
54307;SDS011;40208;39.778;2.710;2023-06-10T11:57:18;13.05;;;4.18;;
54307;SDS011;40208;39.778;2.710;2023-06-10T12:00:06;11.75;;;4.22;;
54307;SDS011;40208;39.778;2.710;2023-06-10T12:02:55;12.38;;;4.20;;
54307;SDS011;40208;39.778;2.710;2023-06-10T12:05:57;13.48;;;4.47;;
54307;SDS011;40208;39.778;2.710;2023-06-10T12:08:43;10.90;;;4.22;;
54307;SDS011;40208;39.778;2.710;2023-06-10T12:11:28;17.63;;;5.00;;
54307;SDS011;40208;39.778;2.710;2023-06-10T12:14:13;10.90;;;4.47;;
54307;SDS011;40208;39.778;2.710;2023-06-10T12:16:58;12.40;;;4.32;;
54307;SDS011;40208;39.778;2.710;2023-06-10T12:19:43;15.00;;;4.60;;
54307;SDS011;40208;39.778;2.710;2023-06-10T12:22:41;21.73;;;4.72;;
54307;SDS011;40208;39.778;2.710;2023-06-10T12:25:30;15.88;;;4.78;;
54307;SDS011;40208;39.778;2.710;2023-06-10T12:28:16;12.15;;;4.15;;
54307;SDS011;40208;39.778;2.710;2023-06-10T12:31:07;12.93;;;3.80;;
54307;SDS011;40208;39.778;2.710;2023-06-10T12:34:07;13.45;;;4.32;;
54307;SDS011;40208;39.778;2.710;2023-06-10T12:36:55;9.57;;;3.83;;
54307;SDS011;40208;39.778;2.710;2023-06-10T12:39:41;19.95;;;5.18;;
54307;SDS011;40208;39.778;2.710;2023-06-10T12:42:27;9.98;;;4.07;;
54307;SDS011;40208;39.778;2.710;2023-06-10T12:45:12;11.85;;;4.47;;
54307;SDS011;40208;39.778;2.710;2023-06-10T12:48:10;17.45;;;4.55;;
54307;SDS011;40208;39.778;2.710;2023-06-10T12:51:08;12.98;;;4.18;;
54307;SDS011;40208;39.778;2.710;2023-06-10T12:53:55;14.27;;;4.18;;
54307;SDS011;40208;39.778;2.710;2023-06-10T12:56:40;14.73;;;4.35;;
54307;SDS011;40208;39.778;2.710;2023-06-10T12:59:26;13.90;;;3.85;;
54307;SDS011;40208;39.778;2.710;2023-06-10T13:02:11;15.23;;;4.53;;
54307;SDS011;40208;39.778;2.710;2023-06-10T13:04:57;20.83;;;4.97;;
54307;SDS011;40208;39.778;2.710;2023-06-10T13:07:43;10.48;;;4.57;;
54307;SDS011;40208;39.778;2.710;2023-06-10T13:10:29;15.38;;;4.75;;
54307;SDS011;40208;39.778;2.710;2023-06-10T13:13:15;10.80;;;4.20;;
54307;SDS011;40208;39.778;2.710;2023-06-10T13:16:02;10.35;;;3.85;;
54307;SDS011;40208;39.778;2.710;2023-06-10T13:18:46;12.55;;;3.72;;
54307;SDS011;40208;39.778;2.710;2023-06-10T13:21:32;20.52;;;5.15;;
54307;SDS011;40208;39.778;2.710;2023-06-10T13:24:18;11.68;;;4.30;;
54307;SDS011;40208;39.778;2.710;2023-06-10T13:27:07;15.90;;;4.78;;
54307;SDS011;40208;39.778;2.710;2023-06-10T13:29:54;16.25;;;4.63;;
54307;SDS011;40208;39.778;2.710;2023-06-10T13:32:39;15.77;;;4.57;;
54307;SDS011;40208;39.778;2.710;2023-06-10T13:35:24;20.02;;;5.03;;
54307;SDS011;40208;39.778;2.710;2023-06-10T13:38:09;13.98;;;4.32;;
54307;SDS011;40208;39.778;2.710;2023-06-10T13:40:54;13.63;;;4.15;;
54307;SDS011;40208;39.778;2.710;2023-06-10T13:43:39;13.05;;;4.40;;
54307;SDS011;40208;39.778;2.710;2023-06-10T13:46:24;18.23;;;5.10;;
54307;SDS011;40208;39.778;2.710;2023-06-10T13:49:13;16.15;;;5.38;;
54307;SDS011;40208;39.778;2.710;2023-06-10T13:52:00;11.07;;;4.60;;
54307;SDS011;40208;39.778;2.710;2023-06-10T13:54:49;12.32;;;4.05;;
54307;SDS011;40208;39.778;2.710;2023-06-10T13:57:34;12.82;;;4.13;;
54307;SDS011;40208;39.778;2.710;2023-06-10T14:00:19;15.00;;;4.35;;
54307;SDS011;40208;39.778;2.710;2023-06-10T14:03:04;11.10;;;4.70;;
54307;SDS011;40208;39.778;2.710;2023-06-10T14:05:51;11.00;;;3.63;;
54307;SDS011;40208;39.778;2.710;2023-06-10T14:08:44;9.45;;;3.88;;
54307;SDS011;40208;39.778;2.710;2023-06-10T14:11:30;11.05;;;3.60;;
54307;SDS011;40208;39.778;2.710;2023-06-10T14:17:07;9.70;;;4.55;;
54307;SDS011;40208;39.778;2.710;2023-06-10T14:20:00;11.30;;;5.03;;
54307;SDS011;40208;39.778;2.710;2023-06-10T14:22:48;9.65;;;3.95;;
54307;SDS011;40208;39.778;2.710;2023-06-10T14:26:14;11.77;;;3.65;;
54307;SDS011;40208;39.778;2.710;2023-06-10T14:29:05;12.23;;;3.63;;
54307;SDS011;40208;39.778;2.710;2023-06-10T14:31:57;8.95;;;3.92;;
54307;SDS011;40208;39.778;2.710;2023-06-10T14:35:10;15.18;;;4.63;;
54307;SDS011;40208;39.778;2.710;2023-06-10T14:37:57;21.73;;;5.18;;
54307;SDS011;40208;39.778;2.710;2023-06-10T14:40:42;12.10;;;4.55;;
54307;SDS011;40208;39.778;2.710;2023-06-10T14:43:28;20.40;;;5.35;;
54307;SDS011;40208;39.778;2.710;2023-06-10T14:46:12;12.57;;;4.40;;
54307;SDS011;40208;39.778;2.710;2023-06-10T14:48:57;11.23;;;4.47;;
54307;SDS011;40208;39.778;2.710;2023-06-10T14:51:43;13.18;;;4.47;;
54307;SDS011;40208;39.778;2.710;2023-06-10T14:54:29;14.07;;;4.32;;
54307;SDS011;40208;39.778;2.710;2023-06-10T14:57:14;15.60;;;4.50;;
54307;SDS011;40208;39.778;2.710;2023-06-10T15:00:01;16.88;;;5.00;;
54307;SDS011;40208;39.778;2.710;2023-06-10T15:02:47;13.52;;;4.85;;
54307;SDS011;40208;39.778;2.710;2023-06-10T15:05:35;9.88;;;4.03;;
54307;SDS011;40208;39.778;2.710;2023-06-10T15:08:21;16.50;;;4.72;;
54307;SDS011;40208;39.778;2.710;2023-06-10T15:11:08;13.45;;;4.57;;
54307;SDS011;40208;39.778;2.710;2023-06-10T15:13:53;9.63;;;3.92;;
54307;SDS011;40208;39.778;2.710;2023-06-10T15:16:38;9.95;;;4.28;;
54307;SDS011;40208;39.778;2.710;2023-06-10T15:19:23;15.02;;;4.88;;
54307;SDS011;40208;39.778;2.710;2023-06-10T15:22:08;12.15;;;4.53;;
54307;SDS011;40208;39.778;2.710;2023-06-10T15:24:53;13.18;;;4.45;;
54307;SDS011;40208;39.778;2.710;2023-06-10T15:27:38;11.50;;;4.57;;
54307;SDS011;40208;39.778;2.710;2023-06-10T15:30:23;8.05;;;3.67;;
54307;SDS011;40208;39.778;2.710;2023-06-10T15:33:08;9.02;;;3.88;;
54307;SDS011;40208;39.778;2.710;2023-06-10T15:35:53;11.40;;;4.15;;
54307;SDS011;40208;39.778;2.710;2023-06-10T15:38:38;9.32;;;3.80;;
54307;SDS011;40208;39.778;2.710;2023-06-10T15:41:24;9.18;;;3.60;;
54307;SDS011;40208;39.778;2.710;2023-06-10T15:44:09;8.93;;;3.72;;
54307;SDS011;40208;39.778;2.710;2023-06-10T15:46:54;8.27;;;3.53;;
54307;SDS011;40208;39.778;2.710;2023-06-10T15:49:41;14.88;;;3.47;;
54307;SDS011;40208;39.778;2.710;2023-06-10T15:52:26;10.23;;;3.92;;
54307;SDS011;40208;39.778;2.710;2023-06-10T15:55:13;10.15;;;3.90;;
54307;SDS011;40208;39.778;2.710;2023-06-10T15:57:58;11.10;;;3.85;;
54307;SDS011;40208;39.778;2.710;2023-06-10T16:00:48;7.65;;;3.30;;
54307;SDS011;40208;39.778;2.710;2023-06-10T16:03:40;9.40;;;3.60;;
54307;SDS011;40208;39.778;2.710;2023-06-10T16:06:28;7.40;;;3.45;;
54307;SDS011;40208;39.778;2.710;2023-06-10T16:09:17;10.35;;;3.05;;
54307;SDS011;40208;39.778;2.710;2023-06-10T16:12:02;9.18;;;3.25;;
54307;SDS011;40208;39.778;2.710;2023-06-10T16:14:50;5.45;;;2.70;;
54307;SDS011;40208;39.778;2.710;2023-06-10T16:17:35;9.50;;;2.78;;
54307;SDS011;40208;39.778;2.710;2023-06-10T16:20:22;7.57;;;2.90;;
54307;SDS011;40208;39.778;2.710;2023-06-10T16:23:07;6.20;;;2.70;;
54307;SDS011;40208;39.778;2.710;2023-06-10T16:25:51;15.43;;;3.67;;
54307;SDS011;40208;39.778;2.710;2023-06-10T16:28:36;9.82;;;3.28;;
54307;SDS011;40208;39.778;2.710;2023-06-10T16:31:21;6.97;;;2.40;;
54307;SDS011;40208;39.778;2.710;2023-06-10T16:34:09;9.43;;;2.97;;
54307;SDS011;40208;39.778;2.710;2023-06-10T16:36:54;10.82;;;3.60;;
54307;SDS011;40208;39.778;2.710;2023-06-10T16:39:39;10.23;;;3.35;;
54307;SDS011;40208;39.778;2.710;2023-06-10T16:42:24;6.85;;;2.42;;
54307;SDS011;40208;39.778;2.710;2023-06-10T16:45:11;9.45;;;3.17;;
54307;SDS011;40208;39.778;2.710;2023-06-10T16:47:56;5.10;;;2.67;;
54307;SDS011;40208;39.778;2.710;2023-06-10T16:50:45;11.93;;;2.95;;